createdAt,value
2022-08-23T00:02:24.942Z,8.27
2022-08-23T00:05:07.590Z,8.70
2022-08-23T00:07:43.972Z,8.43
2022-08-23T00:10:15.776Z,9.10
2022-08-23T00:12:46.319Z,8.93
2022-08-23T00:15:17.086Z,9.73
2022-08-23T00:17:44.282Z,9.98
2022-08-23T00:20:16.663Z,9.95
2022-08-23T00:22:43.798Z,10.00
2022-08-23T00:25:15.408Z,10.50
2022-08-23T00:27:42.466Z,10.55
2022-08-23T00:30:17.783Z,10.65
2022-08-23T00:32:46.207Z,10.55
2022-08-23T00:35:20.875Z,10.73
2022-08-23T00:38:32.590Z,10.15
2022-08-23T00:40:52.811Z,11.30
2022-08-23T00:43:56.950Z,10.68
2022-08-23T00:46:53.434Z,10.05
2022-08-23T00:49:21.740Z,10.57
2022-08-23T00:52:07.695Z,10.35
2022-08-23T00:54:39.391Z,10.77
2022-08-23T00:57:15.744Z,9.80
2022-08-23T00:59:42.829Z,9.80
2022-08-23T01:02:10.000Z,10.10
2022-08-23T01:04:48.248Z,10.15
2022-08-23T01:07:46.957Z,10.23
2022-08-23T01:10:29.683Z,10.32
2022-08-23T01:13:08.631Z,9.68
2022-08-23T01:15:45.673Z,9.88
2022-08-23T01:18:17.695Z,9.38
2022-08-23T01:21:25.206Z,9.25
2022-08-23T01:23:56.920Z,9.45
2022-08-23T01:26:26.786Z,8.95
2022-08-23T01:28:54.902Z,9.07
2022-08-23T01:31:24.191Z,8.52
2022-08-23T01:33:59.171Z,8.70
2022-08-23T01:36:27.170Z,8.05
2022-08-23T01:38:54.603Z,8.98
2022-08-23T01:41:21.702Z,8.40
2022-08-23T01:43:48.754Z,8.20
2022-08-23T01:46:21.284Z,8.30
2022-08-23T01:48:50.193Z,7.18
2022-08-23T01:51:19.882Z,7.85
2022-08-23T01:53:47.284Z,7.45
2022-08-23T01:56:19.953Z,7.60
2022-08-23T01:58:54.766Z,7.68
2022-08-23T02:01:21.743Z,6.72
2022-08-23T02:03:49.797Z,6.85
2022-08-23T02:06:32.591Z,6.90
2022-08-23T02:09:03.533Z,7.38
2022-08-23T02:11:42.294Z,7.45
2022-08-23T02:14:15.135Z,6.32
2022-08-23T02:16:58.041Z,7.47
2022-08-23T02:19:30.296Z,8.05
2022-08-23T02:21:57.125Z,7.55
2022-08-23T02:24:25.751Z,7.50
2022-08-23T02:27:02.011Z,6.57
2022-08-23T02:29:29.869Z,6.80
2022-08-23T02:31:58.733Z,6.93
2022-08-23T02:34:28.774Z,7.10
2022-08-23T02:36:56.144Z,7.45
2022-08-23T02:39:23.776Z,8.05
2022-08-23T02:41:52.788Z,7.93
2022-08-23T02:44:20.816Z,7.55
2022-08-23T02:46:48.087Z,8.43
2022-08-23T02:49:16.534Z,8.10
2022-08-23T02:51:46.336Z,8.90
2022-08-23T02:54:13.708Z,9.13
2022-08-23T02:56:41.118Z,10.40
2022-08-23T02:59:08.203Z,9.15
2022-08-23T03:01:39.488Z,9.18
2022-08-23T03:04:09.487Z,9.10
2022-08-23T03:06:37.790Z,9.68
2022-08-23T03:09:07.465Z,9.95
2022-08-23T03:11:34.759Z,11.23
2022-08-23T03:14:02.142Z,10.80
2022-08-23T03:16:29.323Z,10.95
2022-08-23T03:18:56.316Z,11.00
2022-08-23T03:21:23.397Z,10.82
2022-08-23T03:23:51.640Z,11.02
2022-08-23T03:26:18.684Z,11.60
2022-08-23T03:28:47.185Z,11.88
2022-08-23T03:31:15.843Z,11.13
2022-08-23T03:33:43.265Z,11.23
2022-08-23T03:36:12.194Z,12.70
2022-08-23T03:38:41.374Z,12.10
2022-08-23T03:41:08.917Z,12.90
2022-08-23T03:43:37.432Z,11.73
2022-08-23T03:46:06.719Z,12.63
2022-08-23T03:48:34.378Z,12.13
2022-08-23T03:51:01.776Z,13.13
2022-08-23T03:53:28.794Z,13.60
2022-08-23T03:55:56.500Z,13.52
2022-08-23T03:58:25.792Z,13.63
2022-08-23T04:00:52.755Z,13.15
2022-08-23T04:03:19.728Z,13.80
2022-08-23T04:05:47.150Z,13.32
2022-08-23T04:08:14.182Z,13.48
2022-08-23T04:10:45.236Z,13.63
2022-08-23T04:13:12.299Z,13.18
2022-08-23T04:15:39.780Z,12.75
2022-08-23T04:18:10.595Z,13.95
2022-08-23T04:20:38.058Z,13.15
2022-08-23T04:23:05.914Z,11.98
2022-08-23T04:25:35.560Z,12.43
2022-08-23T04:28:04.068Z,12.68
2022-08-23T04:30:32.901Z,13.73
2022-08-23T04:32:59.979Z,12.65
2022-08-23T04:35:29.876Z,12.07
2022-08-23T04:37:56.880Z,12.10
2022-08-23T04:40:42.289Z,13.07
2022-08-23T04:43:09.732Z,11.82
2022-08-23T04:45:40.751Z,11.98
2022-08-23T04:48:11.703Z,12.15
2022-08-23T04:50:40.628Z,12.07
2022-08-23T04:53:08.305Z,12.48
2022-08-23T04:55:36.477Z,12.73
2022-08-23T04:58:05.185Z,12.20
2022-08-23T05:00:32.291Z,11.10
2022-08-23T05:02:59.390Z,11.68
2022-08-23T05:05:27.859Z,11.82
2022-08-23T05:07:55.661Z,11.60
2022-08-23T05:10:22.897Z,10.48
2022-08-23T05:12:49.908Z,11.82
2022-08-23T05:15:17.300Z,11.20
2022-08-23T05:17:44.379Z,11.30
2022-08-23T05:20:11.734Z,11.07
2022-08-23T05:22:41.689Z,10.80
2022-08-23T05:25:09.327Z,11.73
2022-08-23T05:27:37.860Z,12.07
2022-08-23T05:30:07.233Z,11.82
2022-08-23T05:32:34.377Z,11.07
2022-08-23T05:35:01.392Z,11.73
2022-08-23T05:37:29.093Z,11.32
2022-08-23T05:39:56.003Z,12.15
2022-08-23T05:42:23.110Z,11.65
2022-08-23T05:44:49.997Z,11.68
2022-08-23T05:47:17.947Z,11.73
2022-08-23T05:49:51.923Z,12.05
2022-08-23T05:52:18.780Z,12.25
2022-08-23T05:54:45.990Z,11.68
2022-08-23T05:57:12.959Z,12.43
2022-08-23T05:59:41.936Z,12.50
2022-08-23T06:02:10.296Z,12.35
2022-08-23T06:04:37.525Z,13.00
2022-08-23T06:07:05.971Z,12.77
2022-08-23T06:09:33.527Z,11.68
2022-08-23T06:12:00.842Z,12.63
2022-08-23T06:14:28.426Z,13.57
2022-08-23T06:16:56.353Z,12.95
2022-08-23T06:19:24.213Z,12.80
2022-08-23T06:21:52.319Z,13.32
2022-08-23T06:24:20.500Z,13.13
2022-08-23T06:26:48.016Z,12.85
2022-08-23T06:29:20.057Z,13.00
2022-08-23T06:31:51.515Z,13.57
2022-08-23T06:34:34.051Z,11.95
2022-08-23T06:37:11.597Z,13.45
2022-08-23T06:39:39.167Z,12.73
2022-08-23T06:42:37.144Z,11.77
2022-08-23T06:45:01.444Z,12.02
2022-08-23T06:47:28.676Z,12.20
2022-08-23T06:49:57.635Z,11.18
2022-08-23T06:52:28.353Z,11.75
2022-08-23T06:54:55.824Z,12.02
2022-08-23T06:57:24.793Z,11.70
2022-08-23T06:59:55.017Z,11.23
2022-08-23T07:02:22.036Z,11.68
2022-08-23T07:04:54.033Z,12.25
2022-08-23T07:07:21.517Z,11.70
2022-08-23T07:09:48.447Z,11.38
2022-08-23T07:12:15.623Z,10.88
2022-08-23T07:14:42.939Z,10.90
2022-08-23T07:17:09.748Z,11.35
2022-08-23T07:19:36.782Z,10.73
2022-08-23T07:22:06.220Z,9.93
2022-08-23T07:24:34.124Z,10.80
2022-08-23T07:27:09.783Z,10.35
2022-08-23T07:29:39.723Z,9.73
2022-08-23T07:32:07.313Z,9.88
2022-08-23T07:34:34.922Z,11.20
2022-08-23T07:37:02.619Z,11.77
2022-08-23T07:39:31.771Z,11.60
2022-08-23T07:42:01.461Z,13.05
2022-08-23T07:44:36.124Z,11.77
2022-08-23T07:47:03.360Z,12.90
2022-08-23T07:49:31.262Z,14.50
2022-08-23T07:51:58.949Z,13.38
2022-08-23T07:54:28.403Z,14.43
2022-08-23T07:56:55.503Z,14.20
2022-08-23T07:59:23.389Z,14.30
2022-08-23T08:01:50.314Z,14.98
2022-08-23T08:04:17.201Z,15.25
2022-08-23T08:07:04.758Z,14.48
2022-08-23T08:09:35.669Z,15.07
2022-08-23T08:12:03.015Z,14.50
2022-08-23T08:14:30.761Z,14.80
2022-08-23T08:16:58.674Z,13.60
2022-08-23T08:19:26.306Z,15.45
2022-08-23T08:21:53.334Z,14.35
2022-08-23T08:24:20.157Z,15.85
2022-08-23T08:26:47.976Z,16.13
2022-08-23T08:29:15.943Z,15.30
2022-08-23T08:31:46.747Z,16.15
2022-08-23T08:34:14.387Z,16.52
2022-08-23T08:36:46.658Z,16.13
2022-08-23T08:39:22.219Z,16.63
2022-08-23T08:42:08.226Z,17.38
2022-08-23T08:44:53.208Z,16.73
2022-08-23T08:47:35.083Z,17.67
2022-08-23T08:50:33.781Z,15.95
2022-08-23T08:53:09.341Z,17.60
2022-08-23T08:55:51.658Z,18.73
2022-08-23T08:58:39.380Z,18.45
2022-08-23T09:01:06.494Z,19.30
2022-08-23T09:03:36.073Z,18.60
2022-08-23T09:06:21.686Z,18.08
2022-08-23T09:08:48.669Z,17.63
2022-08-23T09:11:52.727Z,18.58
2022-08-23T09:14:42.445Z,18.58
2022-08-23T09:17:40.813Z,18.45
2022-08-23T09:20:10.623Z,17.52
2022-08-23T09:22:48.170Z,18.70
2022-08-23T09:25:17.049Z,18.90
2022-08-23T09:27:46.272Z,18.25
2022-08-23T09:30:18.389Z,17.33
2022-08-23T09:32:50.330Z,18.65
2022-08-23T09:35:26.277Z,17.75
2022-08-23T09:38:06.724Z,19.48
2022-08-23T09:40:45.529Z,19.52
2022-08-23T09:43:22.057Z,19.35
2022-08-23T09:45:48.804Z,19.67
2022-08-23T09:48:35.576Z,19.45
2022-08-23T09:51:25.157Z,18.83
2022-08-23T09:54:13.018Z,19.40
2022-08-23T09:56:47.452Z,20.23
2022-08-23T09:59:27.455Z,18.33
2022-08-23T10:01:58.940Z,18.70
2022-08-23T10:04:34.999Z,19.80
2022-08-23T10:08:07.661Z,19.65
2022-08-23T10:10:52.082Z,18.90
2022-08-23T10:13:20.817Z,19.08
2022-08-23T10:15:52.339Z,19.50
2022-08-23T10:18:51.201Z,18.55
2022-08-23T10:21:38.345Z,18.23
2022-08-23T10:24:24.157Z,17.15
2022-08-23T10:27:37.362Z,15.65
2022-08-23T10:30:19.589Z,16.92
2022-08-23T10:33:18.284Z,15.50
2022-08-23T10:36:32.658Z,15.75
2022-08-23T10:39:11.044Z,16.02
2022-08-23T10:42:08.063Z,14.48
2022-08-23T10:44:46.455Z,14.35
2022-08-23T10:48:07.613Z,13.65
2022-08-23T10:51:03.909Z,14.38
2022-08-23T10:53:56.761Z,14.02
2022-08-23T10:56:24.175Z,15.02
2022-08-23T10:59:01.378Z,13.70
2022-08-23T11:01:48.592Z,14.95
2022-08-23T11:04:35.451Z,14.25
2022-08-23T11:07:23.714Z,13.77
2022-08-23T11:10:09.986Z,14.52
2022-08-23T11:12:57.447Z,14.15
2022-08-23T11:16:07.313Z,14.77
2022-08-23T11:18:36.483Z,14.82
2022-08-23T11:21:33.603Z,14.65
2022-08-23T11:24:00.728Z,14.07
2022-08-23T11:26:27.727Z,14.43
2022-08-23T11:29:08.137Z,14.07
2022-08-23T11:31:44.976Z,13.85
2022-08-23T11:34:25.833Z,14.10
2022-08-23T11:37:24.438Z,14.43
2022-08-23T11:40:00.485Z,14.88
2022-08-23T11:42:42.795Z,14.32
2022-08-23T11:45:27.962Z,14.75
2022-08-23T11:51:05.918Z,14.52
2022-08-23T11:53:54.943Z,15.48
2022-08-23T11:57:10.683Z,17.10
2022-08-23T12:00:11.248Z,16.73
2022-08-23T12:02:38.082Z,15.70
2022-08-23T12:05:32.581Z,14.95
2022-08-23T12:08:00.032Z,16.50
2022-08-23T12:10:42.309Z,16.10
2022-08-23T12:13:18.219Z,15.52
2022-08-23T12:16:16.848Z,15.95
2022-08-23T12:18:47.922Z,15.43
2022-08-23T12:21:33.107Z,15.45
2022-08-23T12:24:18.970Z,14.93
2022-08-23T12:27:08.623Z,14.20
2022-08-23T12:30:31.853Z,14.32
2022-08-23T12:33:48.938Z,14.60
2022-08-23T12:36:34.624Z,15.00
2022-08-23T12:39:20.396Z,14.02
2022-08-23T12:42:03.355Z,13.82
2022-08-23T12:44:34.106Z,13.95
2022-08-23T12:47:30.804Z,14.45
2022-08-23T12:50:10.485Z,13.82
2022-08-23T12:52:38.441Z,14.90
2022-08-23T12:55:19.899Z,15.00
2022-08-23T12:57:55.287Z,15.13
2022-08-23T13:00:52.848Z,15.63
2022-08-23T13:03:44.442Z,15.68
2022-08-23T13:06:18.838Z,14.63
2022-08-23T13:09:06.249Z,14.70
2022-08-23T13:11:37.324Z,14.45
2022-08-23T13:14:31.086Z,14.98
2022-08-23T13:17:27.287Z,15.15
2022-08-23T13:23:07.315Z,14.18
2022-08-23T13:25:39.995Z,14.32
2022-08-23T13:28:27.276Z,14.18
2022-08-23T13:31:08.096Z,14.57
2022-08-23T13:33:36.411Z,13.93
2022-08-23T13:36:14.486Z,13.15
2022-08-23T13:38:44.410Z,13.45
2022-08-23T13:41:38.402Z,14.10
2022-08-23T13:44:09.679Z,14.60
2022-08-23T13:46:46.875Z,13.45
2022-08-23T13:49:22.422Z,13.13
2022-08-23T13:52:33.487Z,13.68
2022-08-23T13:54:52.962Z,13.27
2022-08-23T13:57:22.358Z,13.95
2022-08-23T13:59:56.331Z,13.63
2022-08-23T14:02:26.941Z,14.70
2022-08-23T14:04:54.262Z,13.13
2022-08-23T14:07:21.567Z,13.88
2022-08-23T14:09:53.137Z,13.73
2022-08-23T14:12:27.976Z,14.20
2022-08-23T14:14:58.431Z,14.07
2022-08-23T14:17:26.627Z,13.82
2022-08-23T14:20:32.017Z,14.77
2022-08-23T14:22:41.379Z,13.93
2022-08-23T14:25:10.996Z,14.77
2022-08-23T14:27:41.385Z,14.68
2022-08-23T14:30:15.609Z,13.88
2022-08-23T14:32:42.408Z,13.60
2022-08-23T14:35:11.289Z,14.40
2022-08-23T14:40:25.686Z,14.52
2022-08-23T14:42:53.659Z,14.68
2022-08-23T14:45:21.338Z,14.73
2022-08-23T14:47:48.586Z,13.00
2022-08-23T14:50:15.845Z,14.32
2022-08-23T14:52:46.578Z,15.38
2022-08-23T14:55:15.646Z,15.32
2022-08-23T14:57:42.713Z,14.15
2022-08-23T15:00:14.615Z,13.38
2022-08-23T15:02:46.856Z,13.35
2022-08-23T15:05:15.715Z,13.35
2022-08-23T15:07:43.490Z,13.27
2022-08-23T15:10:49.696Z,13.02
2022-08-23T15:13:15.532Z,12.98
2022-08-23T15:15:49.156Z,13.52
2022-08-23T15:18:17.358Z,13.52
2022-08-23T15:20:45.661Z,13.57
2022-08-23T15:23:13.372Z,13.25
2022-08-23T15:25:43.739Z,13.57
2022-08-23T15:28:16.085Z,13.48
2022-08-23T15:30:44.837Z,13.93
2022-08-23T15:33:12.393Z,13.57
2022-08-23T15:35:46.290Z,13.18
2022-08-23T15:40:43.682Z,13.35
2022-08-23T15:43:10.840Z,14.07
2022-08-23T15:45:38.773Z,12.63
2022-08-23T15:48:19.609Z,13.18
2022-08-23T15:50:47.405Z,13.55
2022-08-23T15:53:16.176Z,12.48
2022-08-23T15:55:46.267Z,12.75
2022-08-23T15:58:23.999Z,13.15
2022-08-23T16:00:52.530Z,12.45
2022-08-23T16:03:22.319Z,12.85
2022-08-23T16:05:53.979Z,12.38
2022-08-23T16:08:36.401Z,12.60
2022-08-23T16:11:07.678Z,13.40
2022-08-23T16:13:35.201Z,13.75
2022-08-23T16:16:03.169Z,12.18
2022-08-23T16:18:30.155Z,12.40
2022-08-23T16:20:57.400Z,12.50
2022-08-23T16:23:26.441Z,12.20
2022-08-23T16:25:55.889Z,13.70
2022-08-23T16:28:26.144Z,12.63
2022-08-23T16:30:53.122Z,12.48
2022-08-23T16:33:20.015Z,11.90
2022-08-23T16:35:47.333Z,12.02
2022-08-23T16:38:14.323Z,11.90
2022-08-23T16:40:41.124Z,11.48
2022-08-23T16:43:08.127Z,13.13
2022-08-23T16:45:35.027Z,11.60
2022-08-23T16:48:01.939Z,11.70
2022-08-23T16:50:32.695Z,11.73
2022-08-23T16:53:03.691Z,11.95
2022-08-23T16:55:33.620Z,11.20
2022-08-23T16:58:01.298Z,12.18
2022-08-23T17:00:28.429Z,11.57
2022-08-23T17:02:55.523Z,12.15
2022-08-23T17:05:22.597Z,10.80
2022-08-23T17:07:53.003Z,11.57
2022-08-23T17:10:22.406Z,10.55
2022-08-23T17:12:54.854Z,10.18
2022-08-23T17:15:28.046Z,9.98
2022-08-23T17:17:55.300Z,11.07
2022-08-23T17:20:27.284Z,10.38
2022-08-23T17:22:55.152Z,10.65
2022-08-23T17:25:23.239Z,10.05
2022-08-23T17:27:53.695Z,10.35
2022-08-23T17:30:24.415Z,10.30
2022-08-23T17:32:52.708Z,9.73
2022-08-23T17:35:26.603Z,11.20
2022-08-23T17:37:54.440Z,9.80
2022-08-23T17:40:31.795Z,10.88
2022-08-23T17:43:03.517Z,10.00
2022-08-23T17:45:45.591Z,9.50
2022-08-23T17:48:14.785Z,9.90
2022-08-23T17:50:43.564Z,9.65
2022-08-23T17:53:13.590Z,9.27
2022-08-23T17:55:41.897Z,9.27
2022-08-23T17:58:10.986Z,9.00
2022-08-23T18:00:39.597Z,10.32
2022-08-23T18:03:07.208Z,9.70
2022-08-23T18:05:38.375Z,9.65
2022-08-23T18:08:05.680Z,9.73
2022-08-23T18:10:33.014Z,10.48
2022-08-23T18:13:00.058Z,10.18
2022-08-23T18:15:30.189Z,10.32
2022-08-23T18:18:00.502Z,10.48
2022-08-23T18:20:28.798Z,10.95
2022-08-23T18:22:58.384Z,9.90
2022-08-23T18:25:26.837Z,10.13
2022-08-23T18:28:06.372Z,12.23
2022-08-23T18:30:37.122Z,11.13
2022-08-23T18:33:07.088Z,10.40
2022-08-23T18:35:34.638Z,10.68
2022-08-23T18:38:02.183Z,11.25
2022-08-23T18:40:30.243Z,11.32
2022-08-23T18:42:57.700Z,11.20
2022-08-23T18:45:24.773Z,10.68
2022-08-23T18:47:52.508Z,9.73
2022-08-23T18:50:19.899Z,10.52
2022-08-23T18:52:46.859Z,11.15
2022-08-23T18:55:14.980Z,11.45
2022-08-23T18:57:43.225Z,11.45
2022-08-23T19:00:11.722Z,10.48
2022-08-23T19:02:38.836Z,11.05
2022-08-23T19:05:08.931Z,11.90
2022-08-23T19:07:36.011Z,11.80
2022-08-23T19:10:07.927Z,11.68
2022-08-23T19:12:35.133Z,11.52
2022-08-23T19:15:02.094Z,11.38
2022-08-23T19:17:29.294Z,12.43
2022-08-23T19:19:59.126Z,12.15
2022-08-23T19:22:27.472Z,11.25
2022-08-23T19:24:54.362Z,11.80
2022-08-23T19:27:21.586Z,11.98
2022-08-23T19:29:48.782Z,11.55
2022-08-23T19:32:16.933Z,11.82
2022-08-23T19:34:44.135Z,12.40
2022-08-23T19:37:20.743Z,12.13
2022-08-23T19:39:50.515Z,12.80
2022-08-23T19:42:19.894Z,12.90
2022-08-23T19:44:49.569Z,12.93
2022-08-23T19:47:19.777Z,13.00
2022-08-23T19:49:48.522Z,11.25
2022-08-23T19:52:15.466Z,12.60
2022-08-23T19:54:42.528Z,13.02
2022-08-23T19:57:10.932Z,12.65
2022-08-23T19:59:40.415Z,12.65
2022-08-23T20:02:09.994Z,13.23
2022-08-23T20:04:39.362Z,12.57
2022-08-23T20:07:06.496Z,12.88
2022-08-23T20:09:34.149Z,12.77
2022-08-23T20:12:02.290Z,12.77
2022-08-23T20:14:32.010Z,12.50
2022-08-23T20:17:03.483Z,12.30
2022-08-23T20:19:31.430Z,12.13
2022-08-23T20:22:19.390Z,12.52
2022-08-23T20:24:52.116Z,11.90
2022-08-23T20:27:29.050Z,11.68
2022-08-23T20:30:01.415Z,13.02
2022-08-23T20:32:29.958Z,12.55
2022-08-23T20:34:57.953Z,12.18
2022-08-23T20:37:26.022Z,11.18
2022-08-23T20:39:54.440Z,12.25
2022-08-23T20:42:21.738Z,12.50
2022-08-23T20:44:49.038Z,12.15
2022-08-23T20:47:16.048Z,14.82
2022-08-23T20:49:43.346Z,12.90
2022-08-23T20:52:10.691Z,12.63
2022-08-23T20:54:37.721Z,13.43
2022-08-23T20:57:05.056Z,14.35
2022-08-23T20:59:32.270Z,12.18
2022-08-23T21:01:59.219Z,14.15
2022-08-23T21:04:29.306Z,12.70
2022-08-23T21:06:57.988Z,12.10
2022-08-23T21:09:29.075Z,12.60
2022-08-23T21:11:57.454Z,11.77
2022-08-23T21:14:24.966Z,11.98
2022-08-23T21:16:52.135Z,11.73
2022-08-23T21:19:19.444Z,12.30
2022-08-23T21:21:47.351Z,12.05
2022-08-23T21:24:14.629Z,12.70
2022-08-23T21:26:42.302Z,11.55
2022-08-23T21:29:11.076Z,12.65
2022-08-23T21:31:39.734Z,12.27
2022-08-23T21:34:08.228Z,10.90
2022-08-23T21:36:36.638Z,10.88
2022-08-23T21:39:05.540Z,10.90
2022-08-23T21:41:44.865Z,10.95
2022-08-23T21:44:17.114Z,11.48
2022-08-23T21:46:45.181Z,10.18
2022-08-23T21:49:13.116Z,10.77
2022-08-23T21:51:41.949Z,10.60
2022-08-23T21:54:11.412Z,11.20
2022-08-23T21:56:39.751Z,10.60
2022-08-23T21:59:12.379Z,10.15
2022-08-23T22:01:39.787Z,10.65
2022-08-23T22:04:10.349Z,10.05
2022-08-23T22:06:38.697Z,9.60
2022-08-23T22:09:11.332Z,10.00
2022-08-23T22:11:41.693Z,9.70
2022-08-23T22:14:12.355Z,9.55
2022-08-23T22:16:40.993Z,10.30
2022-08-23T22:19:08.007Z,9.73
2022-08-23T22:21:35.621Z,9.95
2022-08-23T22:24:03.095Z,9.73
2022-08-23T22:26:30.288Z,9.50
2022-08-23T22:28:57.397Z,9.27
2022-08-23T22:31:24.966Z,9.80
2022-08-23T22:33:53.301Z,9.40
2022-08-23T22:36:23.372Z,10.10
2022-08-23T22:38:51.828Z,9.25
2022-08-23T22:41:24.110Z,9.52
2022-08-23T22:44:01.700Z,8.95
2022-08-23T22:46:33.599Z,9.98
2022-08-23T22:49:01.772Z,9.15
2022-08-23T22:51:33.636Z,9.88
2022-08-23T22:54:06.897Z,9.30
2022-08-23T22:56:41.842Z,9.77
2022-08-23T23:01:42.407Z,9.57
2022-08-23T23:04:14.114Z,9.90
2022-08-23T23:06:41.895Z,10.02
2022-08-23T23:09:11.153Z,8.98
2022-08-23T23:11:40.239Z,10.15
2022-08-23T23:14:09.857Z,8.85
2022-08-23T23:16:37.709Z,8.57
2022-08-23T23:19:24.178Z,9.43
2022-08-23T23:21:55.659Z,9.55
2022-08-23T23:24:34.144Z,9.82
2022-08-23T23:27:02.581Z,9.80
2022-08-23T23:29:32.216Z,9.60
2022-08-23T23:31:59.668Z,9.77
2022-08-23T23:34:28.287Z,9.35
2022-08-23T23:36:56.536Z,8.77
2022-08-23T23:39:24.549Z,9.27
2022-08-23T23:41:52.475Z,9.48
2022-08-23T23:44:22.452Z,9.30
2022-08-23T23:46:58.018Z,8.82
2022-08-23T23:49:32.128Z,9.38
2022-08-23T23:52:00.270Z,10.18
2022-08-23T23:54:27.112Z,9.68
2022-08-23T23:56:54.653Z,9.10
2022-08-23T23:59:21.612Z,9.63
